CW6020 Teulada ES current weather conditions

sailwx.info

Wind from 075 at 1 knots gusting 2

Air temperature 22.8° C
Dewpoint 18.7° C

Last reported at 2014-Sep-30 16:50 UTC.
Time now 2014-Sep-30 17:57 UTC

Location: N 38°44' E 000°06'.
View on Google Maps.

See reports from other nearby stations

  
Tides and Currents Weather Stations Pressure Air Temp Water Temp Dewpoint Dewpoint Depression Visibility Wind Speed Wind Dir Waves Ship Positions
date/time (UTC)wind fromknots sea level pressurealtimeterstation pressurevisibilityair tempwater tempwave heightnotes
2014-Sep-30 16:50 075 1 gusting 2 22.8
2014-Sep-30 16:30 23.3
2014-Sep-30 16:10 075 1 gusting 2 25.6
2014-Sep-30 15:40 165 1 gusting 3 26.7
2014-Sep-30 15:30 030 1 gusting 4 27.2
2014-Sep-30 15:20 195 1 gusting 3 27.2
2014-Sep-30 15:10 150 1 gusting 2 27.2
2014-Sep-30 14:50 255 2 gusting 3 28.3
2014-Sep-30 14:30 090 1 gusting 3 28.3
2014-Sep-30 14:20 060 1 gusting 5 28.9
2014-Sep-30 14:10 28.9
2014-Sep-30 14:00 330 2 gusting 6 28.9
2014-Sep-30 13:40 150 1 gusting 3 29.4
2014-Sep-30 13:30 210 1 gusting 3 29.4
2014-Sep-30 13:20 29.4
2014-Sep-30 13:10 180 1 gusting 2 29.4
2014-Sep-30 12:40 045 3 gusting 8 30.0
2014-Sep-30 12:10 120 1 gusting 2 29.4
2014-Sep-30 12:00 180 1 gusting 2 29.4
2014-Sep-30 11:50 150 1 gusting 3 28.9
2014-Sep-30 11:40 180 1 gusting 3 28.9
2014-Sep-30 11:20 165 1 gusting 1 28.3
2014-Sep-30 11:10 165 1 gusting 3 28.3
2014-Sep-30 11:00 315 1 gusting 3 27.8
2014-Sep-30 10:10 045 1 gusting 3 25.0
2014-Sep-30 10:00 292 3 gusting 5 25.0
2014-Sep-30 09:30 300 3 gusting 6 25.0
2014-Sep-30 08:40 22.8
2014-Sep-30 08:30 315 2 gusting 4 21.7
2014-Sep-30 08:20 315 0 gusting 1 21.1
2014-Sep-30 07:40 165 1 gusting 2 21.1
2014-Sep-30 07:20 090 20.6
2014-Sep-30 07:10 150 20.0
2014-Sep-30 07:00 195 0 gusting 1 19.4
2014-Sep-30 06:50 150 18.9
2014-Sep-30 06:40 120 18.9
2014-Sep-30 06:30 150 18.9
2014-Sep-30 06:20 270 0 gusting 1 18.3
2014-Sep-30 06:10 240 18.3
2014-Sep-30 05:50 105 18.3
2014-Sep-30 04:50 105 18.9
2014-Sep-30 04:40 322 18.9
2014-Sep-30 04:30 330 18.9
2014-Sep-30 04:10 015 18.9
2014-Sep-30 03:30 105 0 gusting 1 19.4
2014-Sep-30 03:20 240 19.4
2014-Sep-30 02:50 345 1 gusting 1 19.4
2014-Sep-30 02:40 322 2 gusting 6 19.4
2014-Sep-30 02:20 345 3 gusting 6 20.0
2014-Sep-30 02:10 345 2 gusting 8 19.4
2014-Sep-30 02:00 195 3 gusting 6 19.4
2014-Sep-30 01:50 315 3 gusting 6 18.9
2014-Sep-30 01:40 225 3 gusting 5 18.3
2014-Sep-30 01:30 082 18.3
2014-Sep-30 01:20 135 18.3
2014-Sep-30 01:10 090 0 gusting 2 18.3
2014-Sep-30 00:50 150 18.9
2014-Sep-30 00:30 060 18.9
2014-Sep-30 00:20 015 19.4
2014-Sep-29 23:50 105 19.4
2014-Sep-29 23:40 255 19.4
2014-Sep-29 23:30 150 0 gusting 1 19.4
2014-Sep-29 22:50 330 1 gusting 1 20.6
2014-Sep-29 22:40 337 1 gusting 3 20.6
2014-Sep-29 22:30 345 1 gusting 3 21.1
2014-Sep-29 22:20 330 3 gusting 5 21.1
2014-Sep-29 22:10 285 0 gusting 1 21.1
2014-Sep-29 21:50 225 21.7
2014-Sep-29 21:30 007 1 gusting 3 21.7
2014-Sep-29 21:00 165 1 gusting 2 21.7
2014-Sep-29 20:40 345 1 gusting 6 21.7
2014-Sep-29 20:30 345 1 gusting 1 21.7
2014-Sep-29 20:10 330 2 gusting 4 21.1
2014-Sep-29 20:00 300 21.1
2014-Sep-29 19:50 150 21.1
2014-Sep-29 19:20 165 21.1
2014-Sep-29 19:10 105 21.1
2014-Sep-29 18:20 015 21.7
2014-Sep-29 18:00 345 22.2
2014-Sep-29 17:50 052 0 gusting 1 22.8
2014-Sep-29 17:00 105 23.9
2014-Sep-29 16:50 090 1 gusting 1 23.9
2014-Sep-29 16:40 045 1 gusting 2 24.4
2014-Sep-29 16:10 315 1 gusting 4 25.0
2014-Sep-29 16:00 277 1 gusting 3 25.0
2014-Sep-29 15:40 217 1 gusting 3 25.6
2014-Sep-29 15:30 352 1 gusting 2 25.0
2014-Sep-29 14:30 075 2 gusting 4 27.2
2014-Sep-29 13:50 210 3 gusting 4 26.1
2014-Sep-29 13:30 007 1 gusting 2 26.7
2014-Sep-29 13:20 315 1 gusting 5 25.6
2014-Sep-29 12:40 25.6
2014-Sep-29 12:10 345 0 gusting 1 24.4
2014-Sep-29 11:50 255 23.9
2014-Sep-29 11:30 060 23.3
2014-Sep-29 10:50 210 21.7
2014-Sep-29 10:30 060 21.7
2014-Sep-29 10:10 270 21.7
2014-Sep-29 09:40 210 21.7
2014-Sep-29 09:30 315 21.7
2014-Sep-29 09:10 240 22.2
2014-Sep-29 08:30 22.8
2014-Sep-29 08:10 015 1 gusting 4 23.9
2014-Sep-29 07:40 330 2 gusting 5 22.2
2014-Sep-29 07:30 315 1 gusting 3 21.7
2014-Sep-29 07:20 345 2 gusting 3 21.7
2014-Sep-29 07:10 322 2 gusting 3 21.7
2014-Sep-29 06:30 060 20.6
2014-Sep-29 06:10 240 20.6
2014-Sep-29 03:00 030 0 gusting 1 20.6
2014-Sep-29 02:20 015 4 gusting 6 21.1
2014-Sep-29 02:00 022 2 gusting 5 21.1
2014-Sep-29 01:40 330 0 gusting 1 20.6
2014-Sep-29 01:20 195 20.0
2014-Sep-29 01:10 135 20.6
2014-Sep-29 00:30 270 0 gusting 3 20.6
2014-Sep-29 00:20 090 20.6
2014-Sep-28 23:20 285 1 gusting 2 21.1
2014-Sep-28 23:00 120 21.1
2014-Sep-28 22:50 255 21.1
2014-Sep-28 22:20 330 0 gusting 1 21.1
2014-Sep-28 21:40 315 1 gusting 1 21.1
2014-Sep-28 21:00 345 2 gusting 4 21.1
2014-Sep-28 20:40 345 3 gusting 5 21.1
2014-Sep-28 20:20 285 6 gusting 6 21.1
2014-Sep-28 19:30 337 1 gusting 3 21.1
2014-Sep-28 19:00 060 1 gusting 2 21.1
2014-Sep-28 18:30 345 2 gusting 6 21.7
2014-Sep-28 18:10 345 2 gusting 4 21.7
2014-Sep-28 17:40 015 3 gusting 4 22.2
2014-Sep-28 17:30 015 1 gusting 1 22.2
2014-Sep-28 17:10 060 3 gusting 6 22.2